sensor_id;sensor_type;location;lat;lon;timestamp;pressure;altitude;pressure_sealevel;temperature;humidity
75208;BME280;63795;55.684;37.864;2023-08-06T00:02:19;100129.06;;;22.17;67.65
75208;BME280;63795;55.684;37.864;2023-08-06T00:07:19;100135.34;;;22.15;65.90
75208;BME280;63795;55.684;37.864;2023-08-06T00:12:20;100136.63;;;22.14;66.35
75208;BME280;63795;55.684;37.864;2023-08-06T00:17:21;100128.59;;;22.09;67.53
75208;BME280;63795;55.684;37.864;2023-08-06T00:22:22;100126.81;;;22.02;66.71
75208;BME280;63795;55.684;37.864;2023-08-06T00:27:22;100138.03;;;22.00;68.08
75208;BME280;63795;55.684;37.864;2023-08-06T00:32:22;100128.59;;;22.00;66.99
75208;BME280;63795;55.684;37.864;2023-08-06T00:37:23;100133.06;;;22.01;67.45
75208;BME280;63795;55.684;37.864;2023-08-06T00:42:23;100129.84;;;21.99;67.89
75208;BME280;63795;55.684;37.864;2023-08-06T00:47:24;100131.59;;;21.96;67.10
75208;BME280;63795;55.684;37.864;2023-08-06T00:52:25;100130.19;;;21.92;67.60
75208;BME280;63795;55.684;37.864;2023-08-06T00:57:26;100128.88;;;21.93;67.78
75208;BME280;63795;55.684;37.864;2023-08-06T01:02:26;100133.06;;;21.92;68.10
75208;BME280;63795;55.684;37.864;2023-08-06T01:18:18;100138.66;;;21.86;67.42
75208;BME280;63795;55.684;37.864;2023-08-06T01:23:19;100142.16;;;21.81;68.33
75208;BME280;63795;55.684;37.864;2023-08-06T01:28:33;100134.13;;;21.76;68.83
75208;BME280;63795;55.684;37.864;2023-08-06T01:33:40;100141.59;;;21.65;69.12
75208;BME280;63795;55.684;37.864;2023-08-06T01:38:44;100141.56;;;21.56;69.49
75208;BME280;63795;55.684;37.864;2023-08-06T01:43:45;100141.84;;;21.49;68.28
75208;BME280;63795;55.684;37.864;2023-08-06T01:48:45;100160.47;;;21.48;69.08
75208;BME280;63795;55.684;37.864;2023-08-06T01:53:46;100154.34;;;21.46;69.30
75208;BME280;63795;55.684;37.864;2023-08-06T01:58:46;100159.66;;;21.47;69.35
75208;BME280;63795;55.684;37.864;2023-08-06T02:03:47;100159.47;;;21.42;69.52
75208;BME280;63795;55.684;37.864;2023-08-06T02:08:47;100164.44;;;21.41;69.42
75208;BME280;63795;55.684;37.864;2023-08-06T02:13:47;100161.38;;;21.36;70.23
75208;BME280;63795;55.684;37.864;2023-08-06T02:18:48;100176.59;;;21.36;70.12
75208;BME280;63795;55.684;37.864;2023-08-06T02:23:48;100178.66;;;21.36;69.78
75208;BME280;63795;55.684;37.864;2023-08-06T02:28:49;100169.34;;;21.32;70.59
75208;BME280;63795;55.684;37.864;2023-08-06T02:33:49;100184.44;;;21.36;70.12
75208;BME280;63795;55.684;37.864;2023-08-06T02:38:50;100184.28;;;21.39;69.65
75208;BME280;63795;55.684;37.864;2023-08-06T02:43:50;100180.16;;;21.40;69.48
75208;BME280;63795;55.684;37.864;2023-08-06T02:48:51;100179.34;;;21.40;70.16
75208;BME280;63795;55.684;37.864;2023-08-06T02:53:51;100175.63;;;21.39;69.86
75208;BME280;63795;55.684;37.864;2023-08-06T02:58:51;100180.59;;;21.39;70.05
75208;BME280;63795;55.684;37.864;2023-08-06T03:03:52;100184.13;;;21.43;70.03
75208;BME280;63795;55.684;37.864;2023-08-06T03:08:53;100184.94;;;21.43;69.74
75208;BME280;63795;55.684;37.864;2023-08-06T03:13:53;100188.50;;;21.47;69.57
75208;BME280;63795;55.684;37.864;2023-08-06T03:18:55;100168.31;;;21.47;69.39
75208;BME280;63795;55.684;37.864;2023-08-06T03:23:55;100178.75;;;21.54;69.84
75208;BME280;63795;55.684;37.864;2023-08-06T03:28:55;100175.56;;;21.61;68.98
75208;BME280;63795;55.684;37.864;2023-08-06T03:33:56;100168.88;;;21.73;68.33
75208;BME280;63795;55.684;37.864;2023-08-06T03:38:56;100180.16;;;21.80;68.69
75208;BME280;63795;55.684;37.864;2023-08-06T03:43:57;100182.75;;;21.87;67.92
75208;BME280;63795;55.684;37.864;2023-08-06T03:48:57;100190.16;;;21.97;67.54
75208;BME280;63795;55.684;37.864;2023-08-06T03:53:58;100193.09;;;22.06;66.87
75208;BME280;63795;55.684;37.864;2023-08-06T03:58:58;100183.78;;;22.11;66.63
75208;BME280;63795;55.684;37.864;2023-08-06T04:03:59;100185.41;;;22.21;66.99
75208;BME280;63795;55.684;37.864;2023-08-06T04:08:59;100173.88;;;22.30;66.16
75208;BME280;63795;55.684;37.864;2023-08-06T04:13:59;100179.03;;;22.44;65.52
75208;BME280;63795;55.684;37.864;2023-08-06T04:19:00;100169.88;;;22.55;65.49
75208;BME280;63795;55.684;37.864;2023-08-06T04:24:00;100175.69;;;22.64;65.18
75208;BME280;63795;55.684;37.864;2023-08-06T04:29:01;100174.09;;;22.72;64.99
75208;BME280;63795;55.684;37.864;2023-08-06T04:34:01;100179.84;;;22.81;65.19
75208;BME280;63795;55.684;37.864;2023-08-06T04:39:02;100181.63;;;22.97;64.79
75208;BME280;63795;55.684;37.864;2023-08-06T04:44:03;100181.59;;;23.06;64.48
75208;BME280;63795;55.684;37.864;2023-08-06T04:49:04;100176.41;;;23.19;63.74
75208;BME280;63795;55.684;37.864;2023-08-06T04:54:04;100176.41;;;23.37;63.35
75208;BME280;63795;55.684;37.864;2023-08-06T04:59:05;100173.13;;;23.53;62.70
75208;BME280;63795;55.684;37.864;2023-08-06T05:04:06;100179.84;;;23.68;62.81
75208;BME280;63795;55.684;37.864;2023-08-06T05:09:06;100170.94;;;23.81;61.81
75208;BME280;63795;55.684;37.864;2023-08-06T05:14:07;100171.63;;;23.99;61.82
75208;BME280;63795;55.684;37.864;2023-08-06T05:19:07;100171.25;;;24.15;61.97
75208;BME280;63795;55.684;37.864;2023-08-06T05:24:07;100169.84;;;24.34;61.17
75208;BME280;63795;55.684;37.864;2023-08-06T05:29:08;100168.09;;;24.52;60.26
75208;BME280;63795;55.684;37.864;2023-08-06T05:34:08;100161.19;;;24.73;61.12
75208;BME280;63795;55.684;37.864;2023-08-06T05:39:09;100156.22;;;25.02;60.19
75208;BME280;63795;55.684;37.864;2023-08-06T05:44:09;100168.03;;;25.28;59.80
75208;BME280;63795;55.684;37.864;2023-08-06T05:49:10;100159.75;;;25.50;59.79
75208;BME280;63795;55.684;37.864;2023-08-06T05:54:12;100174.78;;;25.63;57.41
75208;BME280;63795;55.684;37.864;2023-08-06T05:59:13;100167.03;;;25.75;57.16
75208;BME280;63795;55.684;37.864;2023-08-06T06:04:13;100164.97;;;25.95;58.49
75208;BME280;63795;55.684;37.864;2023-08-06T06:09:14;100167.75;;;26.04;57.16
75208;BME280;63795;55.684;37.864;2023-08-06T06:14:14;100164.97;;;26.30;57.47
75208;BME280;63795;55.684;37.864;2023-08-06T06:19:15;100159.81;;;26.40;54.22
75208;BME280;63795;55.684;37.864;2023-08-06T06:24:15;100160.84;;;26.57;54.96
75208;BME280;63795;55.684;37.864;2023-08-06T06:29:16;100163.44;;;26.95;54.10
75208;BME280;63795;55.684;37.864;2023-08-06T06:34:16;100161.94;;;27.56;51.49
75208;BME280;63795;55.684;37.864;2023-08-06T06:39:17;100156.91;;;28.25;52.15
75208;BME280;63795;55.684;37.864;2023-08-06T06:44:18;100160.63;;;28.73;50.79
75208;BME280;63795;55.684;37.864;2023-08-06T06:49:20;100160.81;;;29.45;49.01
75208;BME280;63795;55.684;37.864;2023-08-06T06:54:21;100159.50;;;29.57;48.32
75208;BME280;63795;55.684;37.864;2023-08-06T06:59:21;100163.50;;;29.82;46.40
75208;BME280;63795;55.684;37.864;2023-08-06T07:04:22;100159.47;;;30.18;47.38
75208;BME280;63795;55.684;37.864;2023-08-06T07:09:22;100162.13;;;30.16;44.09
75208;BME280;63795;55.684;37.864;2023-08-06T07:14:25;100157.03;;;30.44;45.77
75208;BME280;63795;55.684;37.864;2023-08-06T07:19:26;100152.38;;;30.76;44.73
75208;BME280;63795;55.684;37.864;2023-08-06T07:24:26;100155.56;;;30.84;43.29
75208;BME280;63795;55.684;37.864;2023-08-06T07:29:27;100157.66;;;31.30;42.73
75208;BME280;63795;55.684;37.864;2023-08-06T07:34:27;100156.03;;;30.93;42.12
75208;BME280;63795;55.684;37.864;2023-08-06T07:39:27;100146.06;;;30.56;42.11
75208;BME280;63795;55.684;37.864;2023-08-06T07:44:28;100146.38;;;30.41;42.78
75208;BME280;63795;55.684;37.864;2023-08-06T07:49:29;100145.88;;;30.32;43.20
75208;BME280;63795;55.684;37.864;2023-08-06T07:54:29;100151.94;;;30.50;42.77
75208;BME280;63795;55.684;37.864;2023-08-06T07:59:30;100148.47;;;30.52;42.29
75208;BME280;63795;55.684;37.864;2023-08-06T08:04:30;100148.00;;;30.99;41.61
75208;BME280;63795;55.684;37.864;2023-08-06T08:09:31;100139.22;;;30.99;41.95
75208;BME280;63795;55.684;37.864;2023-08-06T08:14:32;100143.97;;;31.02;41.48
75208;BME280;63795;55.684;37.864;2023-08-06T08:19:39;100137.88;;;31.00;41.73
75208;BME280;63795;55.684;37.864;2023-08-06T08:24:40;100141.38;;;30.93;42.38
75208;BME280;63795;55.684;37.864;2023-08-06T08:29:40;100136.75;;;31.09;42.04
75208;BME280;63795;55.684;37.864;2023-08-06T08:34:41;100136.16;;;31.22;41.82
75208;BME280;63795;55.684;37.864;2023-08-06T08:39:41;100125.53;;;31.13;41.58
75208;BME280;63795;55.684;37.864;2023-08-06T08:44:43;100118.63;;;31.11;41.11
75208;BME280;63795;55.684;37.864;2023-08-06T08:49:44;100138.31;;;31.16;41.31
75208;BME280;63795;55.684;37.864;2023-08-06T08:54:45;100116.44;;;31.17;42.25
75208;BME280;63795;55.684;37.864;2023-08-06T08:59:46;100119.06;;;31.61;41.72
75208;BME280;63795;55.684;37.864;2023-08-06T09:04:48;100109.19;;;31.94;40.17
75208;BME280;63795;55.684;37.864;2023-08-06T09:09:49;100108.97;;;31.86;40.79
75208;BME280;63795;55.684;37.864;2023-08-06T09:14:50;100109.84;;;32.05;40.22
75208;BME280;63795;55.684;37.864;2023-08-06T09:19:50;100102.91;;;32.32;39.92
75208;BME280;63795;55.684;37.864;2023-08-06T09:24:51;100110.25;;;32.20;39.66
75208;BME280;63795;55.684;37.864;2023-08-06T09:29:51;100102.91;;;32.32;40.18
75208;BME280;63795;55.684;37.864;2023-08-06T09:34:56;100102.75;;;32.86;39.10
75208;BME280;63795;55.684;37.864;2023-08-06T09:39:56;100094.25;;;33.20;38.30
75208;BME280;63795;55.684;37.864;2023-08-06T09:45:06;100095.59;;;32.82;37.86
75208;BME280;63795;55.684;37.864;2023-08-06T09:50:15;100093.69;;;32.65;38.61
75208;BME280;63795;55.684;37.864;2023-08-06T09:55:15;100085.50;;;32.77;39.69
75208;BME280;63795;55.684;37.864;2023-08-06T10:00:16;100076.44;;;32.75;38.78
75208;BME280;63795;55.684;37.864;2023-08-06T10:05:18;100063.19;;;33.06;38.59
75208;BME280;63795;55.684;37.864;2023-08-06T10:10:18;100055.97;;;33.07;37.80
75208;BME280;63795;55.684;37.864;2023-08-06T10:15:25;100057.88;;;33.23;37.55
75208;BME280;63795;55.684;37.864;2023-08-06T10:20:27;100059.56;;;33.63;36.84
75208;BME280;63795;55.684;37.864;2023-08-06T10:25:34;100049.41;;;33.77;36.38
75208;BME280;63795;55.684;37.864;2023-08-06T10:30:41;100040.00;;;33.21;37.10
75208;BME280;63795;55.684;37.864;2023-08-06T10:35:46;100046.50;;;33.14;37.41
75208;BME280;63795;55.684;37.864;2023-08-06T10:45:53;100033.78;;;33.69;36.36
75208;BME280;63795;55.684;37.864;2023-08-06T10:50:55;100038.13;;;33.94;35.38
75208;BME280;63795;55.684;37.864;2023-08-06T10:55:56;100030.09;;;34.47;34.80
75208;BME280;63795;55.684;37.864;2023-08-06T11:00:56;100033.13;;;34.42;35.48
75208;BME280;63795;55.684;37.864;2023-08-06T11:05:57;100036.91;;;34.29;35.49
75208;BME280;63795;55.684;37.864;2023-08-06T11:11:11;100030.63;;;34.46;35.00
75208;BME280;63795;55.684;37.864;2023-08-06T11:16:20;100033.38;;;34.90;35.17
75208;BME280;63795;55.684;37.864;2023-08-06T11:21:22;100039.00;;;34.68;34.15
75208;BME280;63795;55.684;37.864;2023-08-06T11:26:22;100022.06;;;34.35;35.27
75208;BME280;63795;55.684;37.864;2023-08-06T11:31:23;100022.63;;;34.33;34.83
75208;BME280;63795;55.684;37.864;2023-08-06T11:36:34;100018.38;;;34.68;35.09
75208;BME280;63795;55.684;37.864;2023-08-06T11:41:39;100014.09;;;34.69;34.75
75208;BME280;63795;55.684;37.864;2023-08-06T11:46:59;100011.00;;;35.08;33.63
75208;BME280;63795;55.684;37.864;2023-08-06T11:57:23;100002.03;;;33.36;37.74
75208;BME280;63795;55.684;37.864;2023-08-06T12:02:23;99998.34;;;32.67;38.23
75208;BME280;63795;55.684;37.864;2023-08-06T12:07:37;99985.84;;;32.79;37.84
75208;BME280;63795;55.684;37.864;2023-08-06T12:12:38;99979.59;;;33.20;36.79
75208;BME280;63795;55.684;37.864;2023-08-06T12:17:39;99974.25;;;33.50;35.80
75208;BME280;63795;55.684;37.864;2023-08-06T12:22:39;99982.09;;;33.61;36.28
75208;BME280;63795;55.684;37.864;2023-08-06T12:27:42;99980.03;;;33.56;36.18
75208;BME280;63795;55.684;37.864;2023-08-06T12:32:42;99975.56;;;33.23;37.08
75208;BME280;63795;55.684;37.864;2023-08-06T12:37:43;99976.09;;;33.21;36.28
75208;BME280;63795;55.684;37.864;2023-08-06T12:42:44;99963.66;;;33.15;36.88
75208;BME280;63795;55.684;37.864;2023-08-06T12:47:44;99966.66;;;32.97;37.66
75208;BME280;63795;55.684;37.864;2023-08-06T12:52:45;99960.16;;;33.17;37.36
75208;BME280;63795;55.684;37.864;2023-08-06T12:57:46;99966.81;;;33.62;36.25
75208;BME280;63795;55.684;37.864;2023-08-06T13:02:46;99954.25;;;33.49;36.39
75208;BME280;63795;55.684;37.864;2023-08-06T13:07:47;99947.59;;;33.74;36.81
75208;BME280;63795;55.684;37.864;2023-08-06T13:12:47;99953.91;;;33.78;36.44
75208;BME280;63795;55.684;37.864;2023-08-06T13:17:48;99950.25;;;33.46;36.51
75208;BME280;63795;55.684;37.864;2023-08-06T13:22:48;99947.63;;;33.29;36.73
75208;BME280;63795;55.684;37.864;2023-08-06T13:27:50;99943.50;;;32.75;37.36
75208;BME280;63795;55.684;37.864;2023-08-06T13:32:51;99938.56;;;32.27;38.53
75208;BME280;63795;55.684;37.864;2023-08-06T13:37:51;99936.84;;;32.18;39.35
75208;BME280;63795;55.684;37.864;2023-08-06T13:42:52;99928.44;;;32.09;39.21
75208;BME280;63795;55.684;37.864;2023-08-06T13:47:55;99930.91;;;31.81;38.77
75208;BME280;63795;55.684;37.864;2023-08-06T13:52:56;99921.22;;;31.67;38.89
75208;BME280;63795;55.684;37.864;2023-08-06T13:57:56;99921.53;;;31.64;39.51
75208;BME280;63795;55.684;37.864;2023-08-06T14:02:56;99920.56;;;31.56;39.26
75208;BME280;63795;55.684;37.864;2023-08-06T14:07:57;99912.00;;;31.34;40.03
75208;BME280;63795;55.684;37.864;2023-08-06T14:12:57;99911.25;;;31.28;40.81
75208;BME280;63795;55.684;37.864;2023-08-06T14:17:58;99911.56;;;31.24;40.90
75208;BME280;63795;55.684;37.864;2023-08-06T14:22:58;99907.16;;;31.12;40.35
75208;BME280;63795;55.684;37.864;2023-08-06T14:27:59;99904.34;;;31.01;40.88
75208;BME280;63795;55.684;37.864;2023-08-06T14:33:00;99904.63;;;30.97;40.59
75208;BME280;63795;55.684;37.864;2023-08-06T14:38:03;99903.91;;;30.91;40.88
75208;BME280;63795;55.684;37.864;2023-08-06T14:43:05;99895.44;;;30.82;40.73
75208;BME280;63795;55.684;37.864;2023-08-06T14:48:06;99895.19;;;30.80;40.82
75208;BME280;63795;55.684;37.864;2023-08-06T14:53:07;99898.72;;;30.73;40.99
75208;BME280;63795;55.684;37.864;2023-08-06T14:58:08;99897.97;;;30.67;40.95
75208;BME280;63795;55.684;37.864;2023-08-06T15:03:08;99905.16;;;30.66;41.57
75208;BME280;63795;55.684;37.864;2023-08-06T15:08:09;99891.59;;;30.63;41.77
75208;BME280;63795;55.684;37.864;2023-08-06T15:13:09;99888.63;;;30.69;41.69
75208;BME280;63795;55.684;37.864;2023-08-06T15:18:10;99894.88;;;30.54;41.78
75208;BME280;63795;55.684;37.864;2023-08-06T15:23:11;99889.59;;;30.47;41.64
75208;BME280;63795;55.684;37.864;2023-08-06T15:28:12;99894.22;;;30.37;41.77
75208;BME280;63795;55.684;37.864;2023-08-06T15:33:12;99887.59;;;30.31;41.97
75208;BME280;63795;55.684;37.864;2023-08-06T15:38:13;99897.72;;;30.30;41.89
75208;BME280;63795;55.684;37.864;2023-08-06T15:43:13;99896.69;;;30.22;41.88
75208;BME280;63795;55.684;37.864;2023-08-06T15:48:13;99892.19;;;30.15;42.11
75208;BME280;63795;55.684;37.864;2023-08-06T15:53:14;99888.31;;;30.02;42.63
75208;BME280;63795;55.684;37.864;2023-08-06T15:58:14;99893.34;;;30.01;42.56
75208;BME280;63795;55.684;37.864;2023-08-06T16:03:15;99899.50;;;29.98;42.39
75208;BME280;63795;55.684;37.864;2023-08-06T16:08:19;99900.06;;;29.91;42.73
75208;BME280;63795;55.684;37.864;2023-08-06T16:13:19;99899.28;;;29.85;42.57
75208;BME280;63795;55.684;37.864;2023-08-06T16:18:19;99888.97;;;29.73;42.91
75208;BME280;63795;55.684;37.864;2023-08-06T16:23:20;99892.19;;;29.64;42.87
75208;BME280;63795;55.684;37.864;2023-08-06T16:28:20;99891.16;;;29.56;43.25
75208;BME280;63795;55.684;37.864;2023-08-06T16:33:21;99886.66;;;29.49;43.26
75208;BME280;63795;55.684;37.864;2023-08-06T16:38:21;99884.28;;;29.48;43.34
75208;BME280;63795;55.684;37.864;2023-08-06T16:43:22;99883.75;;;29.44;43.21
75208;BME280;63795;55.684;37.864;2023-08-06T16:48:23;99884.31;;;29.36;43.15
75208;BME280;63795;55.684;37.864;2023-08-06T16:53:27;99879.56;;;29.28;43.32
75208;BME280;63795;55.684;37.864;2023-08-06T16:58:28;99883.84;;;29.21;43.61
75208;BME280;63795;55.684;37.864;2023-08-06T17:03:28;99882.75;;;29.13;43.93
75208;BME280;63795;55.684;37.864;2023-08-06T17:08:29;99873.75;;;29.06;43.72
75208;BME280;63795;55.684;37.864;2023-08-06T17:13:35;99881.19;;;29.01;44.35
75208;BME280;63795;55.684;37.864;2023-08-06T17:18:36;99884.63;;;28.94;44.45
75208;BME280;63795;55.684;37.864;2023-08-06T17:23:36;99883.88;;;28.83;44.99
75208;BME280;63795;55.684;37.864;2023-08-06T17:28:36;99883.34;;;28.73;45.21
75208;BME280;63795;55.684;37.864;2023-08-06T17:33:37;99880.16;;;28.71;45.36
75208;BME280;63795;55.684;37.864;2023-08-06T17:38:37;99881.78;;;28.55;46.06
75208;BME280;63795;55.684;37.864;2023-08-06T17:43:38;99882.25;;;28.43;45.90
75208;BME280;63795;55.684;37.864;2023-08-06T17:48:38;99875.34;;;28.35;46.38
75208;BME280;63795;55.684;37.864;2023-08-06T17:53:39;99874.28;;;28.27;46.06
75208;BME280;63795;55.684;37.864;2023-08-06T17:58:39;99871.09;;;28.19;46.83
75208;BME280;63795;55.684;37.864;2023-08-06T18:03:40;99883.81;;;28.11;47.15
75208;BME280;63795;55.684;37.864;2023-08-06T18:08:40;99889.09;;;28.07;46.61
75208;BME280;63795;55.684;37.864;2023-08-06T18:13:41;99882.97;;;27.94;47.66
75208;BME280;63795;55.684;37.864;2023-08-06T18:18:41;99880.00;;;27.88;48.75
75208;BME280;63795;55.684;37.864;2023-08-06T18:23:42;99886.63;;;27.77;48.70
75208;BME280;63795;55.684;37.864;2023-08-06T18:28:43;99879.94;;;27.66;49.55
75208;BME280;63795;55.684;37.864;2023-08-06T18:33:45;99873.53;;;27.56;49.61
75208;BME280;63795;55.684;37.864;2023-08-06T18:38:45;99876.44;;;27.45;49.76
75208;BME280;63795;55.684;37.864;2023-08-06T18:43:49;99880.06;;;27.35;50.64
75208;BME280;63795;55.684;37.864;2023-08-06T18:48:50;99877.34;;;27.26;50.03
75208;BME280;63795;55.684;37.864;2023-08-06T18:53:50;99882.84;;;27.18;51.07
75208;BME280;63795;55.684;37.864;2023-08-06T18:58:51;99878.56;;;27.08;51.14
75208;BME280;63795;55.684;37.864;2023-08-06T19:03:51;99885.16;;;27.03;51.06
75208;BME280;63795;55.684;37.864;2023-08-06T19:08:54;99878.50;;;26.97;52.58
75208;BME280;63795;55.684;37.864;2023-08-06T19:13:54;99871.28;;;26.81;52.56
75208;BME280;63795;55.684;37.864;2023-08-06T19:18:55;99875.38;;;26.69;52.48
75208;BME280;63795;55.684;37.864;2023-08-06T19:23:55;99874.81;;;26.65;52.54
75208;BME280;63795;55.684;37.864;2023-08-06T19:28:57;99864.69;;;26.55;53.59
75208;BME280;63795;55.684;37.864;2023-08-06T19:33:59;99863.00;;;26.43;53.60
75208;BME280;63795;55.684;37.864;2023-08-06T19:38:59;99860.56;;;26.36;54.41
75208;BME280;63795;55.684;37.864;2023-08-06T19:44:00;99859.13;;;26.26;54.50
75208;BME280;63795;55.684;37.864;2023-08-06T19:49:00;99868.34;;;26.19;54.72
75208;BME280;63795;55.684;37.864;2023-08-06T19:54:02;99870.41;;;26.13;54.92
75208;BME280;63795;55.684;37.864;2023-08-06T19:59:03;99862.59;;;26.04;55.27
75208;BME280;63795;55.684;37.864;2023-08-06T20:04:03;99859.38;;;25.97;55.60
75208;BME280;63795;55.684;37.864;2023-08-06T20:09:04;99858.00;;;25.92;55.63
75208;BME280;63795;55.684;37.864;2023-08-06T20:14:05;99860.84;;;25.87;55.83
75208;BME280;63795;55.684;37.864;2023-08-06T20:19:05;99858.38;;;25.80;56.07
75208;BME280;63795;55.684;37.864;2023-08-06T20:24:06;99857.22;;;25.72;56.31
75208;BME280;63795;55.684;37.864;2023-08-06T20:29:06;99857.97;;;25.67;56.05
75208;BME280;63795;55.684;37.864;2023-08-06T20:34:06;99862.34;;;25.57;56.73
75208;BME280;63795;55.684;37.864;2023-08-06T20:39:07;99873.91;;;25.51;57.32
75208;BME280;63795;55.684;37.864;2023-08-06T20:44:07;99856.81;;;25.39;57.52
75208;BME280;63795;55.684;37.864;2023-08-06T20:49:08;99851.66;;;25.28;58.17
75208;BME280;63795;55.684;37.864;2023-08-06T20:54:08;99855.31;;;25.23;58.48
75208;BME280;63795;55.684;37.864;2023-08-06T20:59:09;99857.81;;;25.15;58.61
75208;BME280;63795;55.684;37.864;2023-08-06T21:04:09;99852.22;;;25.12;59.38
75208;BME280;63795;55.684;37.864;2023-08-06T21:09:10;99861.38;;;25.05;59.19
75208;BME280;63795;55.684;37.864;2023-08-06T21:14:11;99863.41;;;24.99;59.13
75208;BME280;63795;55.684;37.864;2023-08-06T21:19:12;99866.72;;;24.92;59.88
75208;BME280;63795;55.684;37.864;2023-08-06T21:24:12;99875.56;;;24.83;59.86
75208;BME280;63795;55.684;37.864;2023-08-06T21:29:13;99871.78;;;24.77;60.60
75208;BME280;63795;55.684;37.864;2023-08-06T21:34:13;99870.06;;;24.70;60.71
75208;BME280;63795;55.684;37.864;2023-08-06T21:39:13;99870.16;;;24.61;60.39
75208;BME280;63795;55.684;37.864;2023-08-06T21:44:14;99860.56;;;24.55;60.92
75208;BME280;63795;55.684;37.864;2023-08-06T21:49:14;99863.59;;;24.46;61.36
75208;BME280;63795;55.684;37.864;2023-08-06T21:54:15;99856.63;;;24.38;61.87
75208;BME280;63795;55.684;37.864;2023-08-06T21:59:16;99860.53;;;24.35;61.99
75208;BME280;63795;55.684;37.864;2023-08-06T22:04:17;99865.91;;;24.27;62.38
75208;BME280;63795;55.684;37.864;2023-08-06T22:09:17;99875.63;;;24.24;62.35
75208;BME280;63795;55.684;37.864;2023-08-06T22:14:18;99874.41;;;24.16;62.78
75208;BME280;63795;55.684;37.864;2023-08-06T22:19:18;99864.81;;;24.10;62.87
75208;BME280;63795;55.684;37.864;2023-08-06T22:24:19;99869.22;;;24.06;63.36
75208;BME280;63795;55.684;37.864;2023-08-06T22:29:19;99868.59;;;24.02;63.36
75208;BME280;63795;55.684;37.864;2023-08-06T22:34:20;99866.69;;;23.99;63.15
75208;BME280;63795;55.684;37.864;2023-08-06T22:39:20;99859.19;;;23.92;63.72
75208;BME280;63795;55.684;37.864;2023-08-06T22:44:21;99865.66;;;23.87;63.10
75208;BME280;63795;55.684;37.864;2023-08-06T22:49:21;99854.78;;;23.82;63.91
75208;BME280;63795;55.684;37.864;2023-08-06T22:54:22;99861.56;;;23.79;63.69
75208;BME280;63795;55.684;37.864;2023-08-06T22:59:22;99859.38;;;23.74;63.52
75208;BME280;63795;55.684;37.864;2023-08-06T23:04:23;99863.25;;;23.71;64.24
75208;BME280;63795;55.684;37.864;2023-08-06T23:09:25;99853.56;;;23.59;64.37
75208;BME280;63795;55.684;37.864;2023-08-06T23:14:25;99846.75;;;23.48;64.16
75208;BME280;63795;55.684;37.864;2023-08-06T23:19:26;99853.72;;;23.41;64.34
75208;BME280;63795;55.684;37.864;2023-08-06T23:24:26;99844.13;;;23.35;64.83
75208;BME280;63795;55.684;37.864;2023-08-06T23:29:27;99839.47;;;23.29;64.58
75208;BME280;63795;55.684;37.864;2023-08-06T23:34:28;99847.69;;;23.30;64.36
75208;BME280;63795;55.684;37.864;2023-08-06T23:39:28;99840.78;;;23.28;64.82
75208;BME280;63795;55.684;37.864;2023-08-06T23:44:29;99825.78;;;23.15;65.05
75208;BME280;63795;55.684;37.864;2023-08-06T23:49:29;99842.53;;;23.11;65.18
75208;BME280;63795;55.684;37.864;2023-08-06T23:54:30;99840.00;;;23.04;64.38
75208;BME280;63795;55.684;37.864;2023-08-06T23:59:30;99837.50;;;22.97;65.83
